Time;durP1;ratioP1;P1;durP2;ratioP2;P2;SDS_P1;SDS_P2;PMS_P1;PMS_P2;Temp;Humidity;BMP_temperature;BMP_pressure;BME280_temperature;BME280_humidity;BME280_pressure;Samples;Min_cycle;Max_cycle;Signal;HPM_P1;HPM_P2
2022/05/23 00:04:09;;;;;;;;;;;17.80;99.90;;;16.99;61.92;94951.22;10521915;28;2183;-73
2022/05/23 00:09:14;;;;;;;;;;;17.70;99.90;;;17.07;61.46;94928.59;10536206;28;2180;-74
2022/05/23 00:14:19;;;;;;;;;;;17.80;99.90;;;17.08;61.28;94932.91;10496063;28;2497;-73
2022/05/23 00:19:23;;;;;;;;;;;17.80;99.90;;;17.04;61.31;94926.56;10514257;28;2156;-74
2022/05/23 00:24:26;;;;;;;;;;;17.80;99.90;;;17.09;61.52;94915.47;10497249;28;2310;-73
2022/05/23 00:29:29;;;;;;;;;;;17.80;99.90;;;17.03;62.10;94924.97;10491803;28;2207;-74
2022/05/23 00:39:50;;;;;;;;;;;17.80;99.90;;;17.15;61.44;94929.66;10482540;28;2357;-73
2022/05/23 00:44:52;;;;;;;;;;;17.80;99.90;;;17.08;61.90;94916.63;10510940;28;2239;-72
2022/05/23 00:49:56;;;;;;;;;;;17.80;99.90;;;17.07;61.68;94919.69;10518635;28;2112;-74
2022/05/23 00:54:59;;;;;;;;;;;17.80;99.90;;;16.92;62.44;94921.06;10475927;28;2156;-74
2022/05/23 01:00:02;;;;;;;;;;;17.70;99.90;;;16.86;63.10;94944.13;10494215;28;2075;-74
2022/05/23 01:05:05;;;;;;;;;;;17.60;99.90;;;16.68;63.36;94938.84;10519353;28;2208;-74
2022/05/23 01:10:09;;;;;;;;;;;17.60;99.90;;;16.57;64.03;94934.94;10514917;28;2163;-75
2022/05/23 01:15:14;;;;;;;;;;;17.40;99.90;;;16.64;63.98;94916.19;10492385;28;2203;-73
2022/05/23 01:20:17;;;;;;;;;;;17.40;99.90;;;16.50;64.23;94907.56;10484618;28;2283;-74
2022/05/23 01:25:24;;;;;;;;;;;17.30;99.90;;;16.61;64.14;94914.16;10476777;28;2219;-73
2022/05/23 01:30:28;;;;;;;;;;;17.40;99.90;;;16.61;63.79;94914.16;10481317;28;2369;-73
2022/05/23 01:35:33;;;;;;;;;;;17.40;99.90;;;16.56;63.88;94911.66;10507306;28;2318;-73
2022/05/23 01:40:36;;;;;;;;;;;17.40;99.90;;;16.61;63.78;94902.53;10499468;28;2215;-74
2022/05/23 01:45:39;;;;;;;;;;;17.40;99.90;;;16.48;64.25;94882.69;10496443;28;2053;-74
2022/05/23 01:50:41;;;;;;;;;;;17.40;99.90;;;16.49;63.73;94881.56;10497030;28;2111;-74
2022/05/23 01:55:45;;;;;;;;;;;17.30;99.90;;;16.52;63.62;94871.94;10497227;28;2139;-74
2022/05/23 02:06:09;;;;;;;;;;;17.30;99.90;;;16.60;63.13;94861.00;10498774;28;2082;-74
2022/05/23 02:11:12;;;;;;;;;;;17.30;99.90;;;16.66;63.13;94869.72;10509832;28;2211;-72
2022/05/23 02:16:16;;;;;;;;;;;17.30;99.90;;;16.74;63.64;94868.91;10505003;28;2176;-73
2022/05/23 02:21:19;;;;;;;;;;;17.50;99.90;;;16.79;63.71;94873.31;10495754;28;2176;-74
2022/05/23 02:26:23;;;;;;;;;;;17.50;99.90;;;16.89;63.01;94878.34;10484364;28;2294;-73
2022/05/23 02:31:26;;;;;;;;;;;17.60;99.90;;;16.86;63.29;94877.09;10489378;28;2168;-73
2022/05/23 02:36:29;;;;;;;;;;;17.70;99.90;;;16.90;62.60;94863.63;10488007;28;2302;-74
2022/05/23 02:41:33;;;;;;;;;;;17.60;99.90;;;16.84;62.74;94862.25;10509623;28;2020;-74
2022/05/23 02:46:36;;;;;;;;;;;17.70;99.90;;;16.74;63.14;94864.28;10495722;28;2322;-73
2022/05/23 02:51:39;;;;;;;;;;;17.60;99.90;;;16.69;63.35;94845.44;10512541;28;2254;-74
2022/05/23 02:56:42;;;;;;;;;;;17.50;99.90;;;16.62;63.68;94847.91;10515814;28;2402;-73
2022/05/23 03:07:06;;;;;;;;;;;17.50;99.90;;;16.63;64.26;94827.78;10512815;28;2350;-74
2022/05/23 03:12:10;;;;;;;;;;;17.50;99.90;;;16.57;64.53;94826.41;10497562;28;2404;-75
2022/05/23 03:17:14;;;;;;;;;;;17.50;99.90;;;16.35;65.75;94834.91;10515421;28;2006;-75
2022/05/23 03:27:38;;;;;;;;;;;17.20;99.90;;;16.33;66.67;94815.47;10494338;28;2402;-74
2022/05/23 03:32:40;;;;;;;;;;;17.10;99.90;;;16.43;66.73;94829.44;10488164;28;2402;-75
2022/05/23 03:37:44;;;;;;;;;;;17.20;99.90;;;16.47;66.16;94822.19;10512334;28;2486;-75
2022/05/23 03:42:47;;;;;;;;;;;17.20;99.90;;;16.44;66.56;94809.31;10511108;28;2393;-73
2022/05/23 03:47:50;;;;;;;;;;;17.30;99.90;;;16.49;66.25;94800.19;10503458;28;2492;-75
2022/05/23 03:52:54;;;;;;;;;;;17.30;99.90;;;16.45;66.48;94796.53;10487436;28;2397;-74
2022/05/23 03:57:58;;;;;;;;;;;17.20;99.90;;;16.49;66.66;94789.31;10487811;28;2438;-74
2022/05/23 04:03:01;;;;;;;;;;;17.30;99.90;;;16.52;65.96;94785.94;10500986;28;2448;-71
2022/05/23 04:08:04;;;;;;;;;;;17.30;99.90;;;16.65;66.47;94773.19;10481059;28;2382;-71
2022/05/23 04:13:08;;;;;;;;;;;17.30;99.90;;;16.63;66.04;94770.03;10504702;28;2374;-72
2022/05/23 04:18:31;;;;;;;;;;;17.40;99.90;;;16.56;66.48;94762.44;10508525;28;2485;-71
2022/05/23 04:23:54;;;;;;;;;;;17.30;99.90;;;16.69;66.71;94769.47;10508616;28;2434;-72
2022/05/23 04:28:57;;;;;;;;;;;17.40;99.90;;;16.91;66.01;94770.19;10481890;28;2690;-72
2022/05/23 04:39:21;;;;;;;;;;;17.70;99.90;;;17.53;64.01;94764.41;10511361;28;2358;-71
2022/05/23 04:44:24;;;;;;;;;;;18.00;99.90;;;17.48;64.23;94770.09;10511199;28;2369;-72
2022/05/23 04:49:45;;;;;;;;;;;18.00;99.90;;;17.40;64.14;94767.50;10503579;28;2445;-72
2022/05/23 04:54:49;;;;;;;;;;;18.00;99.90;;;17.62;63.49;94761.56;10476424;28;2371;-70
2022/05/23 04:59:52;;;;;;;;;;;18.20;99.90;;;17.58;64.29;94744.38;10507287;28;2243;-71
2022/05/23 05:04:55;;;;;;;;;;;18.30;99.90;;;17.64;64.17;94737.59;10485787;28;2366;-71
2022/05/23 05:09:58;;;;;;;;;;;18.20;99.90;;;17.76;64.61;94745.75;10485723;28;2390;-70
2022/05/23 05:15:01;;;;;;;;;;;18.40;99.90;;;17.80;64.75;94735.75;10505406;28;2363;-70
2022/05/23 05:20:04;;;;;;;;;;;18.40;99.90;;;17.72;65.01;94733.97;10502946;28;2283;-71
2022/05/23 05:25:07;;;;;;;;;;;18.40;99.90;;;17.58;66.67;94727.28;10479373;28;2374;-70
2022/05/23 05:30:10;;;;;;;;;;;18.30;99.90;;;17.50;66.54;94731.72;10483310;28;1969;-71
2022/05/23 05:35:13;;;;;;;;;;;18.20;99.90;;;18.08;65.27;94724.91;10503105;28;2279;-71
2022/05/23 05:40:16;;;;;;;;;;;18.40;99.90;;;18.16;64.74;94730.53;10483467;28;2272;-70
2022/05/23 05:45:18;;;;;;;;;;;18.70;99.90;;;18.29;64.21;94734.78;10484819;28;2351;-70
2022/05/23 05:50:23;;;;;;;;;;;18.80;99.90;;;18.80;62.12;94733.03;10499792;28;2248;-71
2022/05/23 05:55:26;;;;;;;;;;;19.00;99.90;;;19.01;60.91;94737.41;10478656;28;2367;-73
2022/05/23 06:00:29;;;;;;;;;;;19.40;99.90;;;19.07;61.42;94731.34;10477703;28;2374;-71
2022/05/23 06:11:23;;;;;;;;;;;19.50;99.90;;;18.96;62.51;94734.94;10493819;28;2354;-69
2022/05/23 06:16:20;;;;;;;;;;;19.60;99.90;;;19.49;60.98;94744.38;10483789;28;2183;-68
2022/05/23 06:21:23;;;;;;;;;;;19.90;99.90;;;19.26;61.61;94746.97;10504108;28;2354;-71
2022/05/23 06:26:27;;;;;;;;;;;19.70;99.90;;;19.07;62.04;94763.25;10481124;28;2393;-67
2022/05/23 06:31:30;;;;;;;;;;;19.80;99.90;;;19.47;61.19;94767.66;10484760;28;2314;-67
2022/05/23 06:36:32;;;;;;;;;;;19.90;99.90;;;19.76;60.32;94764.47;10504943;28;2202;-67
2022/05/23 06:41:36;;;;;;;;;;;20.00;99.90;;;20.38;58.94;94770.84;10490941;28;2120;-68
2022/05/23 06:46:39;;;;;;;;;;;20.50;99.90;;;21.02;56.19;94782.97;10489170;28;2235;-69
2022/05/23 06:51:48;;;;;;;;;;;21.10;99.90;;;20.88;56.35;94773.75;10504355;28;2167;-68
2022/05/23 06:56:51;;;;;;;;;;;21.30;99.90;;;21.31;54.40;94789.75;10509207;28;2227;-67
2022/05/23 07:01:54;;;;;;;;;;;21.60;99.90;;;20.44;56.69;94791.25;10507625;28;2192;-68
2022/05/23 07:12:23;;;;;;;;;;;20.80;99.90;;;19.34;61.83;94844.09;10477347;28;2341;-67
2022/05/23 07:17:27;;;;;;;;;;;20.40;99.90;;;18.57;65.21;94917.06;10485375;28;2180;-68
2022/05/23 07:22:31;;;;;;;;;;;19.70;99.90;;;17.86;68.22;94933.94;10494988;28;2204;-67
2022/05/23 07:27:33;;;;;;;;;;;19.00;99.90;;;17.55;71.05;94927.09;10502736;28;2223;-68
2022/05/23 07:32:36;;;;;;;;;;;18.40;99.90;;;17.50;69.82;94930.06;10492682;28;2160;-68
2022/05/23 07:37:40;;;;;;;;;;;18.20;99.90;;;17.71;67.36;94927.25;10489753;28;2334;-68
2022/05/23 07:42:44;;;;;;;;;;;18.20;99.90;;;17.33;67.51;94903.88;10499593;28;2247;-68
2022/05/23 07:47:47;;;;;;;;;;;18.10;99.90;;;17.25;68.31;94902.84;10492797;28;2031;-68
2022/05/23 08:03:33;;;;;;;;;;;17.90;99.90;;;17.51;69.74;94874.59;10496692;28;2328;-69
2022/05/23 08:08:37;;;;;;;;;;;18.10;99.90;;;17.77;67.51;94869.63;10496861;28;2255;-69
2022/05/23 08:13:40;;;;;;;;;;;18.40;99.90;;;18.51;65.57;94839.53;10490649;28;2077;-69
2022/05/23 08:18:43;;;;;;;;;;;18.80;99.90;;;18.86;63.91;94856.88;10503540;28;2247;-68
2022/05/23 08:23:45;;;;;;;;;;;19.10;99.90;;;18.85;65.77;94838.16;10502942;28;2413;-68
2022/05/23 08:28:49;;;;;;;;;;;19.50;99.90;;;18.17;70.95;94776.41;10494815;28;2263;-68
2022/05/23 08:33:52;;;;;;;;;;;19.30;99.90;;;17.62;76.72;94769.72;10495969;28;2548;-68
2022/05/23 08:38:54;;;;;;;;;;;18.50;99.90;;;17.00;80.20;94730.19;10484406;28;2232;-67
2022/05/23 08:43:57;;;;;;;;;;;18.00;99.90;;;16.93;79.41;94714.47;10488641;28;2197;-69
2022/05/23 08:49:00;;;;;;;;;;;17.70;99.90;;;17.48;77.33;94713.03;10488581;28;2350;-68
2022/05/23 08:54:03;;;;;;;;;;;17.90;99.90;;;18.03;74.06;94716.97;10499300;28;2691;-70
2022/05/23 08:59:06;;;;;;;;;;;18.30;99.90;;;18.25;71.67;94721.06;10481059;28;2344;-69
2022/05/23 09:04:10;;;;;;;;;;;;;;;19.29;67.44;94721.75;10489969;28;2201;-68
2022/05/23 09:09:14;;;;;;;;;;;;;;;19.86;62.67;94708.59;10503905;28;2215;-69
2022/05/23 09:14:17;;;;;;;;;;;;;;;20.49;61.02;94694.66;10482532;28;2268;-68
2022/05/23 09:19:20;;;;;;;;;;;21.00;99.90;;;20.95;60.04;94689.19;10482608;28;2307;-72
2022/05/23 09:24:23;;;;;;;;;;;21.40;99.90;;;20.96;57.39;94675.16;10501671;28;2282;-73
2022/05/23 09:29:26;;;;;;;;;;;;;;;21.52;54.23;94673.66;10479737;28;2260;-74
2022/05/23 09:34:29;;;;;;;;;;;;;;;21.48;53.57;94662.66;10486923;28;2275;-75
2022/05/23 09:39:34;;;;;;;;;;;;;;;21.85;51.30;94660.03;10484288;28;2191;-75
2022/05/23 09:50:00;;;;;;;;;;;;;;;22.24;50.98;94642.50;10483665;28;2120;-76
2022/05/23 09:55:03;;;;;;;;;;;;;;;22.85;48.01;94635.63;10488745;28;2208;-75
2022/05/23 10:00:07;;;;;;;;;;;;;;;22.85;47.58;94638.38;10494591;28;2223;-75
2022/05/23 10:05:11;;;;;;;;;;;;;;;23.33;46.24;94625.41;10491611;28;2289;-75
2022/05/23 10:10:14;;;;;;;;;;;;;;;23.46;46.14;94623.13;10497996;28;2116;-75
2022/05/23 10:15:18;;;;;;;;;;;23.80;99.90;;;23.91;45.30;94610.03;10512739;28;2203;-75
2022/05/23 10:20:23;;;;;;;;;;;24.50;99.90;;;24.07;43.67;94594.00;10512587;28;2317;-75
2022/05/23 10:25:27;;;;;;;;;;;24.70;99.70;;;23.64;43.23;94587.59;10514537;28;2243;-74
2022/05/23 10:30:30;;;;;;;;;;;24.60;99.90;;;23.66;41.54;94583.28;10497252;28;1917;-76
2022/05/23 10:35:33;;;;;;;;;;;24.40;99.50;;;23.55;43.38;94582.44;10509506;28;2116;-75
2022/05/23 10:45:59;;;;;;;;;;;;;;;24.40;42.60;94559.97;10495078;28;2143;-73
2022/05/23 10:51:05;;;;;;;;;;;;;;;24.84;43.28;94558.00;10507301;28;2358;-73
2022/05/23 10:56:08;;;;;;;;;;;26.10;99.90;;;24.77;43.22;94554.06;10488358;28;2195;-73
2022/05/23 11:01:13;;;;;;;;;;;;;;;25.52;42.18;94555.91;10488136;28;2368;-73
2022/05/23 11:06:17;;;;;;;;;;;;;;;25.59;42.25;94561.38;10516447;28;2171;-72
2022/05/23 11:11:21;;;;;;;;;;;;;;;24.99;42.66;94556.78;10485812;28;2275;-73
2022/05/23 11:16:25;;;;;;;;;;;;;;;25.17;42.32;94541.06;10496913;28;2362;-75
2022/05/23 11:21:28;;;;;;;;;;;26.20;99.90;;;25.73;41.04;94538.53;10489786;28;2273;-74
2022/05/23 11:26:31;;;;;;;;;;;26.70;99.90;;;25.88;39.68;94535.31;10502503;28;2385;-72
2022/05/23 11:37:01;;;;;;;;;;;27.10;99.90;;;25.26;42.06;94508.44;10512034;28;2303;-74
2022/05/23 11:42:05;;;;;;;;;;;26.50;99.90;;;25.48;41.77;94505.59;10483077;28;2301;-72
2022/05/23 11:47:07;;;;;;;;;;;26.30;99.90;;;24.73;42.09;94492.03;10476913;28;2188;-74
2022/05/23 11:52:10;;;;;;;;;;;26.00;99.90;;;24.58;43.37;94483.06;10499833;28;2314;-73
2022/05/23 11:57:13;;;;;;;;;;;25.50;99.90;;;25.23;43.03;94489.19;10504414;28;2204;-73
2022/05/23 12:02:16;;;;;;;;;;;25.70;99.90;;;25.54;41.23;94487.50;10479869;28;2244;-73
2022/05/23 12:07:19;;;;;;;;;;;26.20;99.90;;;25.69;41.09;94471.69;10489022;28;2231;-71
2022/05/23 12:12:27;;;;;;;;;;;26.50;99.90;;;25.22;41.76;94455.41;10483471;28;2318;-72
2022/05/23 12:17:30;;;;;;;;;;;26.30;99.90;;;25.68;40.71;94454.41;10497572;28;2203;-73
2022/05/23 12:22:33;;;;;;;;;;;26.20;99.90;;;25.77;40.58;94457.53;10499008;28;2247;-72
2022/05/23 12:27:37;;;;;;;;;;;26.50;99.90;;;25.24;40.88;94433.78;10509067;28;2239;-73
2022/05/23 12:32:40;;;;;;;;;;;26.30;99.90;;;25.26;41.42;94430.66;10488094;28;2193;-73
2022/05/23 12:37:43;;;;;;;;;;;26.10;99.90;;;24.90;40.78;94433.50;10497920;28;2096;-72
2022/05/23 12:42:46;;;;;;;;;;;26.00;99.90;;;25.22;40.39;94424.38;10488990;28;2310;-73
2022/05/23 12:47:50;;;;;;;;;;;26.10;99.90;;;25.81;40.20;94430.75;10474554;28;2244;-73
2022/05/23 12:52:53;;;;;;;;;;;26.30;99.90;;;25.71;40.72;94431.59;10495886;28;2314;-74
2022/05/23 12:57:56;;;;;;;;;;;26.30;99.90;;;25.86;39.43;94432.28;10519611;28;2191;-71
2022/05/23 13:03:01;;;;;;;;;;;26.90;90.90;;;26.08;39.40;94443.91;10479928;28;2276;-72
2022/05/23 13:08:05;;;;;;;;;;;26.80;91.50;;;26.95;37.59;94426.97;10475115;28;2629;-72
2022/05/23 13:13:09;;;;;;;;;;;27.40;90.50;;;26.47;38.14;94407.81;10502552;28;2251;-72
2022/05/23 13:23:45;;;;;;;;;;;27.60;89.90;;;25.83;38.78;94378.03;10508281;28;2171;-73
2022/05/23 13:28:48;;;;;;;;;;;27.10;89.30;;;26.08;38.96;94377.84;10482479;28;2327;-73
2022/05/23 13:33:51;;;;;;;;;;;27.00;90.50;;;26.00;40.19;94388.13;10492511;28;2345;-73
2022/05/23 13:38:54;;;;;;;;;;;27.00;91.40;;;26.16;40.12;94393.13;10501078;28;2286;-73
2022/05/23 13:43:58;;;;;;;;;;;26.90;91.70;;;26.69;39.64;94400.09;10487782;28;2463;-73
2022/05/23 13:49:02;;;;;;;;;;;27.30;91.70;;;26.43;39.26;94428.31;10500951;28;2326;-73
2022/05/23 13:54:05;;;;;;;;;;;27.50;90.70;;;26.54;38.93;94423.50;10476715;28;2321;-73
2022/05/23 13:59:08;;;;;;;;;;;27.60;90.00;;;26.33;39.97;94427.97;10508486;28;2369;-73
2022/05/23 14:04:12;;;;;;;;;;;27.30;91.20;;;26.26;40.53;94447.31;10504101;28;2619;-73
2022/05/23 14:09:15;;;;;;;;;;;27.10;91.90;;;26.28;40.46;94439.44;10497559;28;2632;-73
2022/05/23 14:14:18;;;;;;;;;;;27.10;92.00;;;26.30;40.42;94433.53;10504315;28;2301;-73
2022/05/23 14:19:21;;;;;;;;;;;27.20;91.90;;;26.19;40.43;94439.13;10508308;28;2277;-73
2022/05/23 14:24:24;;;;;;;;;;;27.00;91.80;;;25.83;40.53;94460.63;10502133;28;2290;-73
2022/05/23 14:29:29;;;;;;;;;;;26.80;90.90;;;25.43;41.42;94484.00;10508382;28;2299;-74
2022/05/23 14:34:32;;;;;;;;;;;26.40;92.10;;;24.48;44.04;94495.59;10510090;28;2211;-71
2022/05/23 14:39:35;;;;;;;;;;;25.90;93.20;;;24.23;44.98;94506.56;10486299;28;2264;-72
2022/05/23 14:44:38;;;;;;;;;;;25.40;94.80;;;23.97;45.56;94494.00;10487558;28;2236;-73
2022/05/23 14:49:45;;;;;;;;;;;25.00;95.70;;;23.29;52.16;94462.84;10489601;28;2268;-72
2022/05/23 15:05:30;;;;;;;;;;;22.10;99.90;;;20.15;78.04;94473.38;10494513;28;2249;-74
2022/05/23 15:10:33;;;;;;;;;;;21.50;99.90;;;19.79;88.15;94477.47;10503415;28;2357;-73
2022/05/23 15:15:37;;;;;;;;;;;20.80;99.90;;;19.48;87.88;94477.66;10489351;28;2284;-74
2022/05/23 15:20:41;;;;;;;;;;;20.60;99.90;;;19.38;95.50;94462.69;10482673;28;2379;-74
2022/05/23 15:25:44;;;;;;;;;;;20.30;99.90;;;19.14;97.42;94431.88;10490038;28;2392;-73
2022/05/23 15:30:46;;;;;;;;;;;20.20;99.90;;;19.05;97.35;94327.06;10502934;28;2409;-73
2022/05/23 15:35:50;;;;;;;;;;;20.10;99.90;;;18.82;99.93;94332.47;10482806;28;2535;-72
2022/05/23 15:40:54;;;;;;;;;;;19.80;99.90;;;18.80;98.20;94387.28;10456162;28;1136408;-72
2022/05/23 15:45:57;;;;;;;;;;;19.70;99.90;;;18.93;94.95;94389.84;10491196;28;2621;-73
2022/05/23 15:51:01;;;;;;;;;;;19.70;99.90;;;18.97;95.82;94401.59;10500585;28;2175;-72
2022/05/23 15:56:04;;;;;;;;;;;19.80;99.90;;;19.07;94.34;94409.16;10502090;28;2357;-74
2022/05/23 16:01:07;;;;;;;;;;;19.80;99.90;;;19.17;91.78;94398.50;10503540;28;2374;-73
2022/05/23 16:06:10;;;;;;;;;;;19.90;99.90;;;19.26;92.52;94387.34;10494540;28;2255;-73
2022/05/23 16:11:13;;;;;;;;;;;20.00;99.90;;;19.41;87.32;94374.78;10494369;28;2121;-72
2022/05/23 16:16:17;;;;;;;;;;;20.10;99.90;;;19.67;87.36;94379.53;10499962;28;2302;-73
2022/05/23 16:21:20;;;;;;;;;;;20.30;99.90;;;20.22;83.81;94372.53;10492092;28;2183;-71
2022/05/23 16:26:23;;;;;;;;;;;20.60;99.90;;;20.99;78.87;94379.41;10499165;28;2223;-72
2022/05/23 16:31:26;;;;;;;;;;;21.10;99.90;;;21.53;75.07;94408.06;10483578;28;2101;-73
2022/05/23 16:36:37;;;;;;;;;;;21.80;99.90;;;21.75;78.50;94424.66;10501835;28;2365;-73
2022/05/23 16:41:40;;;;;;;;;;;22.10;99.90;;;21.75;76.51;94430.13;10497288;28;2306;-75
2022/05/23 16:46:43;;;;;;;;;;;22.30;99.90;;;21.82;77.95;94443.88;10507214;28;2199;-73
2022/05/23 16:51:47;;;;;;;;;;;22.50;99.90;;;21.66;79.42;94451.56;10481305;28;2358;-74
2022/05/23 16:56:49;;;;;;;;;;;22.40;99.90;;;21.59;77.91;94450.31;10502153;28;2250;-73
2022/05/23 17:01:52;;;;;;;;;;;22.30;99.90;;;21.12;81.55;94452.88;10508046;28;2235;-74
2022/05/23 17:06:56;;;;;;;;;;;22.00;99.90;;;20.81;83.03;94449.41;10497773;28;2278;-75
2022/05/23 17:11:59;;;;;;;;;;;21.70;99.90;;;20.86;79.69;94468.19;10475607;28;2306;-75
2022/05/23 17:17:02;;;;;;;;;;;21.60;99.90;;;20.92;78.46;94477.63;10500435;28;2128;-75
2022/05/23 17:22:06;;;;;;;;;;;21.60;99.90;;;20.80;79.46;94453.28;10504119;28;2239;-75
2022/05/23 17:27:09;;;;;;;;;;;21.60;99.90;;;20.62;81.69;94457.75;10491572;28;2310;-78
2022/05/23 17:32:12;;;;;;;;;;;21.50;99.90;;;20.46;82.75;94485.97;10504085;28;2263;-75
2022/05/23 17:37:15;;;;;;;;;;;21.30;99.90;;;20.45;82.15;94492.59;10501599;28;2224;-76
2022/05/23 17:42:19;;;;;;;;;;;21.20;99.90;;;20.09;88.11;94504.06;10501391;28;2184;-77
2022/05/23 17:47:21;;;;;;;;;;;21.00;99.90;;;19.76;92.14;94545.56;10505898;28;2251;-74
2022/05/23 17:52:26;;;;;;;;;;;20.80;99.90;;;19.80;92.25;94593.56;10486136;28;2262;-74
2022/05/23 17:57:28;;;;;;;;;;;20.70;99.90;;;19.89;91.22;94656.84;10478499;28;2657;-73
2022/05/23 18:02:32;;;;;;;;;;;20.70;99.90;;;20.17;88.63;94688.56;10502977;28;2261;-72
2022/05/23 18:07:35;;;;;;;;;;;;;;;17.82;99.16;94787.84;10485207;28;2453;-72
2022/05/23 18:12:38;;;;;;;;;;;;;;;14.68;100.00;94845.38;10506062;28;2144;-72
2022/05/23 18:23:18;;;;;;;;;;;14.90;99.90;;;13.85;100.00;94829.34;10505131;28;2311;-74
2022/05/23 18:28:22;;;;;;;;;;;14.50;99.90;;;13.94;100.00;94816.66;10515379;28;2437;-75
2022/05/23 18:33:25;;;;;;;;;;;14.60;99.90;;;13.97;100.00;94816.00;10497337;28;2297;-73
2022/05/23 18:38:29;;;;;;;;;;;14.60;99.90;;;13.96;100.00;94744.16;10495112;28;2226;-74
2022/05/23 18:43:32;;;;;;;;;;;14.60;99.90;;;13.90;100.00;94657.09;10516842;28;2230;-73
2022/05/23 18:53:56;;;;;;;;;;;14.60;99.90;;;14.06;100.00;94568.22;10490221;28;2252;-73
2022/05/23 18:59:03;;;;;;;;;;;14.70;99.90;;;14.29;100.00;94568.72;10518845;28;2254;-72
2022/05/23 19:04:14;;;;;;;;;;;14.70;99.90;;;14.45;100.00;94574.38;10490265;28;2247;-72
2022/05/23 19:09:38;;;;;;;;;;;14.90;99.90;;;14.58;100.00;94584.19;10490849;28;2223;-74
2022/05/23 19:14:41;;;;;;;;;;;15.10;99.90;;;14.66;100.00;94598.78;10510515;28;2282;-75
2022/05/23 19:19:44;;;;;;;;;;;15.20;99.90;;;14.72;100.00;94603.66;10490557;28;2196;-74
2022/05/23 19:24:47;;;;;;;;;;;15.30;99.90;;;14.82;100.00;94624.13;10483001;28;2235;-74
2022/05/23 19:29:52;;;;;;;;;;;15.40;99.90;;;14.86;100.00;94644.78;10514714;28;2274;-73
2022/05/23 19:34:55;;;;;;;;;;;15.60;99.90;;;14.90;100.00;94690.16;10513906;28;2258;-74
2022/05/23 19:39:58;;;;;;;;;;;15.60;99.90;;;14.91;100.00;94678.19;10497839;28;2271;-75
2022/05/23 19:45:02;;;;;;;;;;;15.60;99.90;;;14.87;100.00;94691.56;10484456;28;2443;-75
2022/05/23 19:50:05;;;;;;;;;;;15.60;99.90;;;14.95;100.00;94692.63;10485896;28;2322;-74
2022/05/23 19:55:09;;;;;;;;;;;15.60;99.90;;;15.00;100.00;94668.09;10499686;28;2274;-74
2022/05/23 20:00:12;;;;;;;;;;;15.60;99.90;;;14.92;100.00;94658.13;10502112;28;2246;-74
2022/05/23 20:10:37;;;;;;;;;;;15.70;99.90;;;14.88;100.00;94644.44;10485833;28;2354;-74
2022/05/23 20:15:40;;;;;;;;;;;15.60;99.90;;;14.84;100.00;94644.34;10491020;28;2324;-73
2022/05/23 20:20:43;;;;;;;;;;;15.60;99.90;;;14.81;100.00;94655.78;10500314;28;2255;-73
2022/05/23 20:25:46;;;;;;;;;;;15.60;99.90;;;14.82;100.00;94667.41;10484733;28;2246;-73
2022/05/23 20:30:49;;;;;;;;;;;15.60;99.90;;;14.80;100.00;94689.38;10485096;28;2383;-73
2022/05/23 20:35:52;;;;;;;;;;;15.60;99.90;;;14.80;100.00;94699.41;10499553;28;2230;-74
2022/05/23 20:40:55;;;;;;;;;;;15.60;99.90;;;14.83;100.00;94701.47;10482994;28;2243;-73
2022/05/23 20:45:58;;;;;;;;;;;15.60;99.90;;;14.87;100.00;94699.69;10486903;28;2212;-74
2022/05/23 20:51:04;;;;;;;;;;;15.60;99.90;;;14.90;100.00;94690.94;10507895;28;2207;-74
2022/05/23 20:56:08;;;;;;;;;;;15.60;99.90;;;14.90;100.00;94701.75;10482797;28;2375;-74
2022/05/23 21:01:11;;;;;;;;;;;15.60;99.90;;;14.83;100.00;94701.47;10499281;28;2262;-73
2022/05/23 21:06:14;;;;;;;;;;;15.70;99.90;;;14.82;100.00;94710.69;10495324;28;2224;-74
2022/05/23 21:11:20;;;;;;;;;;;15.70;99.90;;;14.80;100.00;94710.22;10484352;28;2255;-73
2022/05/23 21:16:23;;;;;;;;;;;15.60;99.90;;;14.79;100.00;94725.66;10506644;28;2223;-73
2022/05/23 21:21:27;;;;;;;;;;;15.60;99.90;;;14.85;100.00;94742.53;10481922;28;2208;-73
2022/05/23 21:26:30;;;;;;;;;;;15.60;99.90;;;14.78;100.00;94743.03;10486323;28;2165;-75
2022/05/23 21:31:34;;;;;;;;;;;15.60;99.90;;;14.69;100.00;94730.63;10513301;28;2180;-75
2022/05/23 21:36:36;;;;;;;;;;;15.60;99.90;;;14.60;100.00;94728.78;10515165;28;2260;-74
2022/05/23 21:47:01;;;;;;;;;;;15.40;99.90;;;14.57;100.00;94736.75;10508106;28;2129;-74
2022/05/23 21:52:05;;;;;;;;;;;15.30;99.90;;;14.56;100.00;94719.72;10507653;28;2320;-74
2022/05/23 21:57:08;;;;;;;;;;;15.20;99.90;;;14.54;100.00;94729.28;10487754;28;2431;-73
2022/05/23 22:02:11;;;;;;;;;;;15.30;99.90;;;14.59;100.00;94758.84;10502230;28;2258;-74
2022/05/23 22:07:14;;;;;;;;;;;15.30;99.90;;;14.65;100.00;94773.00;10495265;28;2220;-75
2022/05/23 22:12:19;;;;;;;;;;;15.40;99.90;;;14.72;100.00;94752.44;10487233;28;2363;-75
2022/05/23 22:17:22;;;;;;;;;;;15.40;99.90;;;14.73;100.00;94761.34;10493903;28;2228;-75
2022/05/23 22:22:25;;;;;;;;;;;15.50;99.90;;;14.66;100.00;94780.00;10489296;28;2256;-75
2022/05/23 22:27:28;;;;;;;;;;;15.50;99.90;;;14.62;100.00;94779.81;10499339;28;2225;-74
2022/05/23 22:32:31;;;;;;;;;;;15.40;99.90;;;14.57;100.00;94775.41;10508701;28;2196;-75
2022/05/23 22:37:35;;;;;;;;;;;15.40;99.90;;;14.53;100.00;94779.88;10512187;28;2337;-75
2022/05/23 22:42:38;;;;;;;;;;;15.30;99.90;;;14.56;100.00;94773.00;10489160;28;2260;-75
2022/05/23 22:47:42;;;;;;;;;;;15.30;99.90;;;14.55;100.00;94768.72;10485330;28;2204;-75
2022/05/23 22:52:45;;;;;;;;;;;15.30;99.90;;;14.56;100.00;94757.56;10499102;28;2240;-75
2022/05/23 22:57:48;;;;;;;;;;;15.20;99.90;;;14.58;100.00;94762.69;10515823;28;2184;-75
2022/05/23 23:08:13;;;;;;;;;;;15.40;99.90;;;14.57;100.00;94767.28;10511317;28;2272;-74
2022/05/23 23:13:17;;;;;;;;;;;15.20;99.90;;;14.58;100.00;94777.00;10510464;28;2246;-73
2022/05/23 23:18:20;;;;;;;;;;;15.30;99.90;;;14.65;100.00;94770.28;10509385;28;2250;-74
2022/05/23 23:23:23;;;;;;;;;;;15.30;99.90;;;14.66;100.00;94771.88;10506835;28;2389;-74
2022/05/23 23:28:25;;;;;;;;;;;15.50;99.90;;;14.70;100.00;94770.91;10497504;28;2303;-75
2022/05/23 23:38:50;;;;;;;;;;;15.70;99.90;;;14.71;100.00;94767.09;10508852;28;2295;-74
2022/05/23 23:43:55;;;;;;;;;;;15.40;99.90;;;14.71;100.00;94769.00;10481453;28;2275;-74
2022/05/23 23:48:59;;;;;;;;;;;15.50;99.90;;;14.67;100.00;94762.63;10514804;28;2216;-74
2022/05/23 23:54:02;;;;;;;;;;;15.40;99.90;;;14.73;100.00;94750.53;10483263;28;2244;-74
2022/05/23 23:59:05;;;;;;;;;;;15.40;99.90;;;14.76;100.00;94756.09;10494250;28;2264;-75
